Santa Rita d'Oeste, Brazil
Current Conditions -  °F | °C
As of 11:00 PM on Tuesday 25 Nov 2014 (Local Time) from SBSR Reporting Station
Light Rain Light Rain  
Wind Chill: 72°   Ceiling: 500
Heat Index: 72°   Visibility: 1.8mi
Dew Point: 70°   Wind: 2mph
Humidity: 94%   Direction: 270°W
Pressure: 29.91"   Gusts: NA
Location:  20.14°S, 50.83°W
Report Text: SBSR 260100Z 27002KT 3000 -RA BR BKN005 SCT020 OVC080 22/21 Q1013
Loading
Personal Weather Stations






























Interactive Weather Map New forecast layout! Learn more

10-Day Weather Forecast

Advertisements
Track Severe Weather on mobile